sensor_id;sensor_type;location;lat;lon;timestamp;temperature;humidity
37788;DHT22;23627;53.302;-6.362;2023-07-31T00:01:18;16.30;99.90
37788;DHT22;23627;53.302;-6.362;2023-07-31T00:03:47;16.30;99.90
37788;DHT22;23627;53.302;-6.362;2023-07-31T00:06:39;16.30;99.90
37788;DHT22;23627;53.302;-6.362;2023-07-31T00:14:56;16.40;99.90
37788;DHT22;23627;53.302;-6.362;2023-07-31T00:17:22;16.40;99.90
37788;DHT22;23627;53.302;-6.362;2023-07-31T00:19:48;16.40;99.90
37788;DHT22;23627;53.302;-6.362;2023-07-31T00:25:08;16.40;99.90
37788;DHT22;23627;53.302;-6.362;2023-07-31T00:27:36;16.40;99.90
37788;DHT22;23627;53.302;-6.362;2023-07-31T00:30:02;16.40;99.90
37788;DHT22;23627;53.302;-6.362;2023-07-31T00:32:29;16.40;99.90
37788;DHT22;23627;53.302;-6.362;2023-07-31T00:35:01;16.30;99.90
37788;DHT22;23627;53.302;-6.362;2023-07-31T00:37:28;16.30;99.90
37788;DHT22;23627;53.302;-6.362;2023-07-31T00:39:54;16.30;99.90
37788;DHT22;23627;53.302;-6.362;2023-07-31T00:42:20;16.40;99.90
37788;DHT22;23627;53.302;-6.362;2023-07-31T00:44:45;16.30;99.90
37788;DHT22;23627;53.302;-6.362;2023-07-31T00:47:11;16.30;99.90
37788;DHT22;23627;53.302;-6.362;2023-07-31T00:49:37;16.30;99.90
37788;DHT22;23627;53.302;-6.362;2023-07-31T00:52:09;16.30;99.90
37788;DHT22;23627;53.302;-6.362;2023-07-31T00:54:36;16.30;99.90
37788;DHT22;23627;53.302;-6.362;2023-07-31T00:57:10;16.30;99.90
37788;DHT22;23627;53.302;-6.362;2023-07-31T00:59:37;16.30;99.90
37788;DHT22;23627;53.302;-6.362;2023-07-31T01:02:04;16.30;99.90
37788;DHT22;23627;53.302;-6.362;2023-07-31T01:04:31;16.30;99.90
37788;DHT22;23627;53.302;-6.362;2023-07-31T01:12:23;16.30;99.90
37788;DHT22;23627;53.302;-6.362;2023-07-31T01:15:05;16.30;99.90
37788;DHT22;23627;53.302;-6.362;2023-07-31T01:17:32;16.20;99.90
37788;DHT22;23627;53.302;-6.362;2023-07-31T01:20:02;16.20;99.90
37788;DHT22;23627;53.302;-6.362;2023-07-31T01:25:50;16.20;99.90
37788;DHT22;23627;53.302;-6.362;2023-07-31T01:28:41;16.20;99.90
37788;DHT22;23627;53.302;-6.362;2023-07-31T01:31:12;16.20;99.90
37788;DHT22;23627;53.302;-6.362;2023-07-31T01:33:39;16.20;99.90
37788;DHT22;23627;53.302;-6.362;2023-07-31T01:36:05;16.20;99.90
37788;DHT22;23627;53.302;-6.362;2023-07-31T01:38:31;16.10;99.90
37788;DHT22;23627;53.302;-6.362;2023-07-31T01:40:57;16.20;99.90
37788;DHT22;23627;53.302;-6.362;2023-07-31T01:43:23;16.10;99.90
37788;DHT22;23627;53.302;-6.362;2023-07-31T01:45:49;16.10;99.90
37788;DHT22;23627;53.302;-6.362;2023-07-31T01:48:15;16.10;99.90
37788;DHT22;23627;53.302;-6.362;2023-07-31T01:50:41;16.10;99.90
37788;DHT22;23627;53.302;-6.362;2023-07-31T01:53:07;16.10;99.90
37788;DHT22;23627;53.302;-6.362;2023-07-31T01:55:32;16.10;99.90
37788;DHT22;23627;53.302;-6.362;2023-07-31T01:57:58;16.10;99.90
37788;DHT22;23627;53.302;-6.362;2023-07-31T02:00:24;16.10;99.90
37788;DHT22;23627;53.302;-6.362;2023-07-31T02:02:50;16.10;99.90
37788;DHT22;23627;53.302;-6.362;2023-07-31T02:05:16;16.10;99.90
37788;DHT22;23627;53.302;-6.362;2023-07-31T02:07:41;16.10;99.90
37788;DHT22;23627;53.302;-6.362;2023-07-31T02:10:10;16.10;99.90
37788;DHT22;23627;53.302;-6.362;2023-07-31T02:12:36;16.10;99.90
37788;DHT22;23627;53.302;-6.362;2023-07-31T02:15:02;16.10;99.90
37788;DHT22;23627;53.302;-6.362;2023-07-31T02:17:28;16.00;99.90
37788;DHT22;23627;53.302;-6.362;2023-07-31T02:19:55;16.00;99.90
37788;DHT22;23627;53.302;-6.362;2023-07-31T02:22:21;16.00;99.90
37788;DHT22;23627;53.302;-6.362;2023-07-31T02:24:47;16.00;99.90
37788;DHT22;23627;53.302;-6.362;2023-07-31T02:27:12;16.00;99.90
37788;DHT22;23627;53.302;-6.362;2023-07-31T02:29:38;16.00;99.90
37788;DHT22;23627;53.302;-6.362;2023-07-31T02:32:04;16.00;99.90
37788;DHT22;23627;53.302;-6.362;2023-07-31T02:34:30;16.00;99.90
37788;DHT22;23627;53.302;-6.362;2023-07-31T02:36:56;16.00;99.90
37788;DHT22;23627;53.302;-6.362;2023-07-31T02:39:24;16.00;99.90
37788;DHT22;23627;53.302;-6.362;2023-07-31T02:41:50;16.00;99.90
37788;DHT22;23627;53.302;-6.362;2023-07-31T02:44:16;16.00;99.90
37788;DHT22;23627;53.302;-6.362;2023-07-31T02:46:42;16.00;99.90
37788;DHT22;23627;53.302;-6.362;2023-07-31T02:49:08;16.00;99.90
37788;DHT22;23627;53.302;-6.362;2023-07-31T02:51:33;16.00;99.90
37788;DHT22;23627;53.302;-6.362;2023-07-31T02:53:59;16.00;99.90
37788;DHT22;23627;53.302;-6.362;2023-07-31T02:56:25;16.00;99.90
37788;DHT22;23627;53.302;-6.362;2023-07-31T02:58:51;16.00;99.90
37788;DHT22;23627;53.302;-6.362;2023-07-31T03:01:16;16.00;99.90
37788;DHT22;23627;53.302;-6.362;2023-07-31T03:03:44;16.00;99.90
37788;DHT22;23627;53.302;-6.362;2023-07-31T03:06:09;16.00;99.90
37788;DHT22;23627;53.302;-6.362;2023-07-31T03:08:35;16.00;99.90
37788;DHT22;23627;53.302;-6.362;2023-07-31T03:11:01;16.00;99.90
37788;DHT22;23627;53.302;-6.362;2023-07-31T03:13:26;16.00;99.90
37788;DHT22;23627;53.302;-6.362;2023-07-31T03:15:52;16.00;99.90
37788;DHT22;23627;53.302;-6.362;2023-07-31T03:18:18;15.90;99.90
37788;DHT22;23627;53.302;-6.362;2023-07-31T03:20:44;15.90;99.90
37788;DHT22;23627;53.302;-6.362;2023-07-31T03:23:10;16.00;99.90
37788;DHT22;23627;53.302;-6.362;2023-07-31T03:25:36;16.00;99.90
37788;DHT22;23627;53.302;-6.362;2023-07-31T03:28:02;16.00;99.90
37788;DHT22;23627;53.302;-6.362;2023-07-31T03:30:27;16.00;99.90
37788;DHT22;23627;53.302;-6.362;2023-07-31T03:32:56;16.00;99.90
37788;DHT22;23627;53.302;-6.362;2023-07-31T03:35:22;16.00;99.90
37788;DHT22;23627;53.302;-6.362;2023-07-31T03:37:51;16.00;99.90
37788;DHT22;23627;53.302;-6.362;2023-07-31T03:40:17;15.90;99.90
37788;DHT22;23627;53.302;-6.362;2023-07-31T03:42:43;16.00;99.90
37788;DHT22;23627;53.302;-6.362;2023-07-31T03:45:09;16.00;99.90
37788;DHT22;23627;53.302;-6.362;2023-07-31T03:47:35;16.00;99.90
37788;DHT22;23627;53.302;-6.362;2023-07-31T03:50:01;16.00;99.90
37788;DHT22;23627;53.302;-6.362;2023-07-31T03:52:27;16.00;99.90
37788;DHT22;23627;53.302;-6.362;2023-07-31T03:54:53;16.00;99.90
37788;DHT22;23627;53.302;-6.362;2023-07-31T03:57:18;16.00;99.90
37788;DHT22;23627;53.302;-6.362;2023-07-31T03:59:44;16.00;99.90
37788;DHT22;23627;53.302;-6.362;2023-07-31T04:02:10;16.00;99.90
37788;DHT22;23627;53.302;-6.362;2023-07-31T04:04:35;16.00;99.90
37788;DHT22;23627;53.302;-6.362;2023-07-31T04:07:01;16.00;99.90
37788;DHT22;23627;53.302;-6.362;2023-07-31T04:09:27;16.00;99.90
37788;DHT22;23627;53.302;-6.362;2023-07-31T04:11:53;16.00;99.90
37788;DHT22;23627;53.302;-6.362;2023-07-31T04:14:19;16.00;99.90
37788;DHT22;23627;53.302;-6.362;2023-07-31T04:16:44;16.00;99.90
37788;DHT22;23627;53.302;-6.362;2023-07-31T04:19:10;15.90;99.90
37788;DHT22;23627;53.302;-6.362;2023-07-31T04:21:38;15.90;99.90
37788;DHT22;23627;53.302;-6.362;2023-07-31T04:24:04;15.90;99.90
37788;DHT22;23627;53.302;-6.362;2023-07-31T04:26:30;15.90;99.90
37788;DHT22;23627;53.302;-6.362;2023-07-31T04:28:55;15.90;99.90
37788;DHT22;23627;53.302;-6.362;2023-07-31T04:31:21;16.00;99.90
37788;DHT22;23627;53.302;-6.362;2023-07-31T04:33:47;16.00;99.90
37788;DHT22;23627;53.302;-6.362;2023-07-31T04:36:13;15.90;99.90
37788;DHT22;23627;53.302;-6.362;2023-07-31T04:38:39;15.90;99.90
37788;DHT22;23627;53.302;-6.362;2023-07-31T04:41:06;15.90;99.90
37788;DHT22;23627;53.302;-6.362;2023-07-31T04:43:32;15.90;99.90
37788;DHT22;23627;53.302;-6.362;2023-07-31T04:45:58;15.90;99.90
37788;DHT22;23627;53.302;-6.362;2023-07-31T04:48:24;15.80;99.90
37788;DHT22;23627;53.302;-6.362;2023-07-31T04:50:52;15.90;99.90
37788;DHT22;23627;53.302;-6.362;2023-07-31T04:53:19;15.80;99.90
37788;DHT22;23627;53.302;-6.362;2023-07-31T04:55:44;15.80;99.90
37788;DHT22;23627;53.302;-6.362;2023-07-31T04:58:10;15.80;99.90
37788;DHT22;23627;53.302;-6.362;2023-07-31T05:00:36;15.80;99.90
37788;DHT22;23627;53.302;-6.362;2023-07-31T05:03:02;15.90;99.90
37788;DHT22;23627;53.302;-6.362;2023-07-31T05:05:28;15.90;99.90
37788;DHT22;23627;53.302;-6.362;2023-07-31T05:07:53;15.80;99.90
37788;DHT22;23627;53.302;-6.362;2023-07-31T05:10:19;15.90;99.90
37788;DHT22;23627;53.302;-6.362;2023-07-31T05:12:45;15.90;99.90
37788;DHT22;23627;53.302;-6.362;2023-07-31T05:15:11;15.90;99.90
37788;DHT22;23627;53.302;-6.362;2023-07-31T05:17:36;15.90;99.90
37788;DHT22;23627;53.302;-6.362;2023-07-31T05:20:02;15.90;99.90
37788;DHT22;23627;53.302;-6.362;2023-07-31T05:22:29;15.90;99.90
37788;DHT22;23627;53.302;-6.362;2023-07-31T05:24:54;15.90;99.90
37788;DHT22;23627;53.302;-6.362;2023-07-31T05:27:20;15.90;99.90
37788;DHT22;23627;53.302;-6.362;2023-07-31T05:29:47;15.80;99.90
37788;DHT22;23627;53.302;-6.362;2023-07-31T05:32:13;15.80;99.90
37788;DHT22;23627;53.302;-6.362;2023-07-31T05:34:39;15.80;99.90
37788;DHT22;23627;53.302;-6.362;2023-07-31T05:37:05;15.80;99.90
37788;DHT22;23627;53.302;-6.362;2023-07-31T05:39:31;15.80;99.90
37788;DHT22;23627;53.302;-6.362;2023-07-31T05:41:57;15.80;99.90
37788;DHT22;23627;53.302;-6.362;2023-07-31T05:44:24;15.80;99.90
37788;DHT22;23627;53.302;-6.362;2023-07-31T05:46:51;15.70;99.90
37788;DHT22;23627;53.302;-6.362;2023-07-31T05:49:20;15.70;99.90
37788;DHT22;23627;53.302;-6.362;2023-07-31T05:51:46;15.70;99.90
37788;DHT22;23627;53.302;-6.362;2023-07-31T05:54:14;15.70;99.90
37788;DHT22;23627;53.302;-6.362;2023-07-31T05:56:40;15.70;99.90
37788;DHT22;23627;53.302;-6.362;2023-07-31T05:59:09;15.70;99.90
37788;DHT22;23627;53.302;-6.362;2023-07-31T06:01:41;15.70;99.90
37788;DHT22;23627;53.302;-6.362;2023-07-31T06:04:07;15.70;99.90
37788;DHT22;23627;53.302;-6.362;2023-07-31T06:06:33;15.70;99.90
37788;DHT22;23627;53.302;-6.362;2023-07-31T06:09:07;15.70;99.90
37788;DHT22;23627;53.302;-6.362;2023-07-31T06:11:37;15.70;99.90
37788;DHT22;23627;53.302;-6.362;2023-07-31T06:14:06;15.70;99.90
37788;DHT22;23627;53.302;-6.362;2023-07-31T06:16:34;15.70;99.90
37788;DHT22;23627;53.302;-6.362;2023-07-31T06:19:03;15.60;99.90
37788;DHT22;23627;53.302;-6.362;2023-07-31T06:21:40;15.70;99.90
37788;DHT22;23627;53.302;-6.362;2023-07-31T06:24:09;15.60;99.90
37788;DHT22;23627;53.302;-6.362;2023-07-31T06:26:35;15.70;99.90
37788;DHT22;23627;53.302;-6.362;2023-07-31T06:29:01;15.70;99.90
37788;DHT22;23627;53.302;-6.362;2023-07-31T06:31:27;15.70;99.90
37788;DHT22;23627;53.302;-6.362;2023-07-31T06:33:54;15.70;99.90
37788;DHT22;23627;53.302;-6.362;2023-07-31T06:36:20;15.70;99.90
37788;DHT22;23627;53.302;-6.362;2023-07-31T06:38:47;15.70;99.90
37788;DHT22;23627;53.302;-6.362;2023-07-31T06:41:13;15.70;99.90
37788;DHT22;23627;53.302;-6.362;2023-07-31T06:43:39;15.60;99.90
37788;DHT22;23627;53.302;-6.362;2023-07-31T06:46:06;15.70;99.90
37788;DHT22;23627;53.302;-6.362;2023-07-31T06:48:33;15.60;99.90
37788;DHT22;23627;53.302;-6.362;2023-07-31T06:51:01;15.70;99.90
37788;DHT22;23627;53.302;-6.362;2023-07-31T06:53:26;15.60;99.90
37788;DHT22;23627;53.302;-6.362;2023-07-31T06:55:53;15.70;99.90
37788;DHT22;23627;53.302;-6.362;2023-07-31T06:58:20;15.70;99.90
37788;DHT22;23627;53.302;-6.362;2023-07-31T07:00:46;15.70;99.90
37788;DHT22;23627;53.302;-6.362;2023-07-31T07:03:12;15.80;99.90
37788;DHT22;23627;53.302;-6.362;2023-07-31T07:05:40;15.80;99.90
37788;DHT22;23627;53.302;-6.362;2023-07-31T07:08:06;15.80;99.90
37788;DHT22;23627;53.302;-6.362;2023-07-31T07:10:32;15.80;99.90
37788;DHT22;23627;53.302;-6.362;2023-07-31T07:12:57;15.80;99.90
37788;DHT22;23627;53.302;-6.362;2023-07-31T07:15:23;15.70;99.90
37788;DHT22;23627;53.302;-6.362;2023-07-31T07:17:49;15.70;99.90
37788;DHT22;23627;53.302;-6.362;2023-07-31T07:20:15;15.80;99.90
37788;DHT22;23627;53.302;-6.362;2023-07-31T07:22:40;15.80;99.90
37788;DHT22;23627;53.302;-6.362;2023-07-31T07:25:08;15.80;99.90
37788;DHT22;23627;53.302;-6.362;2023-07-31T07:27:34;15.80;99.90
37788;DHT22;23627;53.302;-6.362;2023-07-31T07:30:00;15.80;99.90
37788;DHT22;23627;53.302;-6.362;2023-07-31T07:32:26;15.80;99.90
37788;DHT22;23627;53.302;-6.362;2023-07-31T07:34:52;15.80;99.90
37788;DHT22;23627;53.302;-6.362;2023-07-31T07:37:18;15.80;99.90
37788;DHT22;23627;53.302;-6.362;2023-07-31T07:39:45;15.80;99.90
37788;DHT22;23627;53.302;-6.362;2023-07-31T07:42:12;15.80;99.90
37788;DHT22;23627;53.302;-6.362;2023-07-31T07:44:39;15.70;99.90
37788;DHT22;23627;53.302;-6.362;2023-07-31T07:47:05;15.70;99.90
37788;DHT22;23627;53.302;-6.362;2023-07-31T07:49:35;15.80;99.90
37788;DHT22;23627;53.302;-6.362;2023-07-31T07:52:02;15.80;99.90
37788;DHT22;23627;53.302;-6.362;2023-07-31T07:54:32;15.80;99.90
37788;DHT22;23627;53.302;-6.362;2023-07-31T07:57:04;15.90;99.90
37788;DHT22;23627;53.302;-6.362;2023-07-31T07:59:51;15.90;99.90
37788;DHT22;23627;53.302;-6.362;2023-07-31T08:02:22;15.90;99.90
37788;DHT22;23627;53.302;-6.362;2023-07-31T08:05:25;15.90;99.90
37788;DHT22;23627;53.302;-6.362;2023-07-31T08:07:51;15.90;99.90
37788;DHT22;23627;53.302;-6.362;2023-07-31T08:10:18;15.90;99.90
37788;DHT22;23627;53.302;-6.362;2023-07-31T08:12:44;16.00;99.90
37788;DHT22;23627;53.302;-6.362;2023-07-31T08:15:11;15.90;99.90
37788;DHT22;23627;53.302;-6.362;2023-07-31T08:17:40;16.00;99.90
37788;DHT22;23627;53.302;-6.362;2023-07-31T08:20:10;16.10;99.90
37788;DHT22;23627;53.302;-6.362;2023-07-31T08:22:36;16.20;99.90
37788;DHT22;23627;53.302;-6.362;2023-07-31T08:25:01;16.20;99.90
37788;DHT22;23627;53.302;-6.362;2023-07-31T08:27:31;16.20;99.90
37788;DHT22;23627;53.302;-6.362;2023-07-31T08:29:57;16.20;99.90
37788;DHT22;23627;53.302;-6.362;2023-07-31T08:32:24;16.20;99.90
37788;DHT22;23627;53.302;-6.362;2023-07-31T08:34:50;16.10;99.90
37788;DHT22;23627;53.302;-6.362;2023-07-31T08:37:19;16.10;99.90
37788;DHT22;23627;53.302;-6.362;2023-07-31T08:39:44;16.00;99.90
37788;DHT22;23627;53.302;-6.362;2023-07-31T08:42:12;16.00;99.90
37788;DHT22;23627;53.302;-6.362;2023-07-31T08:44:40;15.90;99.90
37788;DHT22;23627;53.302;-6.362;2023-07-31T08:47:14;16.00;99.90
37788;DHT22;23627;53.302;-6.362;2023-07-31T08:49:46;16.10;99.90
37788;DHT22;23627;53.302;-6.362;2023-07-31T08:52:12;16.20;99.90
37788;DHT22;23627;53.302;-6.362;2023-07-31T08:54:41;16.50;99.90
37788;DHT22;23627;53.302;-6.362;2023-07-31T08:57:11;16.70;99.90
37788;DHT22;23627;53.302;-6.362;2023-07-31T08:59:38;16.80;99.90
37788;DHT22;23627;53.302;-6.362;2023-07-31T09:02:08;16.90;99.90
37788;DHT22;23627;53.302;-6.362;2023-07-31T09:04:41;16.90;99.90
37788;DHT22;23627;53.302;-6.362;2023-07-31T09:10:32;16.90;99.90
37788;DHT22;23627;53.302;-6.362;2023-07-31T09:12:58;16.90;99.90
37788;DHT22;23627;53.302;-6.362;2023-07-31T09:15:34;16.80;99.90
37788;DHT22;23627;53.302;-6.362;2023-07-31T09:18:01;16.80;99.90
37788;DHT22;23627;53.302;-6.362;2023-07-31T09:20:27;16.80;99.90
37788;DHT22;23627;53.302;-6.362;2023-07-31T09:23:12;16.80;99.90
37788;DHT22;23627;53.302;-6.362;2023-07-31T09:25:46;16.80;99.90
37788;DHT22;23627;53.302;-6.362;2023-07-31T09:28:12;16.80;99.90
37788;DHT22;23627;53.302;-6.362;2023-07-31T09:30:50;16.70;99.90
37788;DHT22;23627;53.302;-6.362;2023-07-31T09:37:01;16.60;99.90
37788;DHT22;23627;53.302;-6.362;2023-07-31T09:39:47;16.60;99.90
37788;DHT22;23627;53.302;-6.362;2023-07-31T09:42:13;16.40;99.90
37788;DHT22;23627;53.302;-6.362;2023-07-31T09:44:43;16.30;99.90
37788;DHT22;23627;53.302;-6.362;2023-07-31T09:50:14;16.20;99.90
37788;DHT22;23627;53.302;-6.362;2023-07-31T09:52:42;16.20;99.90
37788;DHT22;23627;53.302;-6.362;2023-07-31T09:55:15;16.20;99.90
37788;DHT22;23627;53.302;-6.362;2023-07-31T10:04:07;16.20;99.90
37788;DHT22;23627;53.302;-6.362;2023-07-31T10:06:35;16.30;99.90
37788;DHT22;23627;53.302;-6.362;2023-07-31T10:09:08;16.40;99.90
37788;DHT22;23627;53.302;-6.362;2023-07-31T10:12:00;16.40;99.90
37788;DHT22;23627;53.302;-6.362;2023-07-31T10:14:27;16.40;99.90
37788;DHT22;23627;53.302;-6.362;2023-07-31T10:16:55;16.50;99.90
37788;DHT22;23627;53.302;-6.362;2023-07-31T10:19:21;16.40;99.90
37788;DHT22;23627;53.302;-6.362;2023-07-31T10:21:48;16.40;99.90
37788;DHT22;23627;53.302;-6.362;2023-07-31T10:24:15;16.30;99.90
37788;DHT22;23627;53.302;-6.362;2023-07-31T10:26:41;16.30;99.90
37788;DHT22;23627;53.302;-6.362;2023-07-31T10:29:11;16.20;99.90
37788;DHT22;23627;53.302;-6.362;2023-07-31T10:31:37;16.10;99.90
37788;DHT22;23627;53.302;-6.362;2023-07-31T10:34:03;16.10;99.90
37788;DHT22;23627;53.302;-6.362;2023-07-31T10:36:29;16.20;99.90
37788;DHT22;23627;53.302;-6.362;2023-07-31T10:38:56;16.30;99.90
37788;DHT22;23627;53.302;-6.362;2023-07-31T10:41:31;16.30;99.90
37788;DHT22;23627;53.302;-6.362;2023-07-31T10:43:58;16.30;99.90
37788;DHT22;23627;53.302;-6.362;2023-07-31T10:46:24;16.30;99.90
37788;DHT22;23627;53.302;-6.362;2023-07-31T10:49:01;16.30;99.90
37788;DHT22;23627;53.302;-6.362;2023-07-31T10:51:36;16.30;99.90
37788;DHT22;23627;53.302;-6.362;2023-07-31T10:54:16;16.40;99.90
37788;DHT22;23627;53.302;-6.362;2023-07-31T10:56:47;16.40;99.90
37788;DHT22;23627;53.302;-6.362;2023-07-31T10:59:15;16.40;99.90
37788;DHT22;23627;53.302;-6.362;2023-07-31T11:01:56;16.50;99.90
37788;DHT22;23627;53.302;-6.362;2023-07-31T11:04:27;16.60;99.90
37788;DHT22;23627;53.302;-6.362;2023-07-31T11:06:59;16.50;99.90
37788;DHT22;23627;53.302;-6.362;2023-07-31T11:09:30;16.40;99.90
37788;DHT22;23627;53.302;-6.362;2023-07-31T11:11:57;16.40;99.90
37788;DHT22;23627;53.302;-6.362;2023-07-31T11:14:23;16.50;99.90
37788;DHT22;23627;53.302;-6.362;2023-07-31T11:20:11;16.60;99.90
37788;DHT22;23627;53.302;-6.362;2023-07-31T11:22:37;16.70;99.90
37788;DHT22;23627;53.302;-6.362;2023-07-31T11:25:03;16.70;99.90
37788;DHT22;23627;53.302;-6.362;2023-07-31T11:27:30;16.60;99.90
37788;DHT22;23627;53.302;-6.362;2023-07-31T11:30:03;16.60;99.90
37788;DHT22;23627;53.302;-6.362;2023-07-31T11:32:48;16.60;99.90
37788;DHT22;23627;53.302;-6.362;2023-07-31T11:35:18;16.60;99.90
37788;DHT22;23627;53.302;-6.362;2023-07-31T11:37:44;16.70;99.90
37788;DHT22;23627;53.302;-6.362;2023-07-31T11:40:11;16.70;99.90
37788;DHT22;23627;53.302;-6.362;2023-07-31T11:42:38;16.80;99.90
37788;DHT22;23627;53.302;-6.362;2023-07-31T11:45:08;16.80;99.90
37788;DHT22;23627;53.302;-6.362;2023-07-31T11:47:37;16.90;99.90
37788;DHT22;23627;53.302;-6.362;2023-07-31T11:50:05;17.10;99.90
37788;DHT22;23627;53.302;-6.362;2023-07-31T11:52:40;17.20;99.90
37788;DHT22;23627;53.302;-6.362;2023-07-31T11:55:08;17.30;99.90
37788;DHT22;23627;53.302;-6.362;2023-07-31T11:57:37;17.40;99.90
37788;DHT22;23627;53.302;-6.362;2023-07-31T12:00:24;17.40;99.90
37788;DHT22;23627;53.302;-6.362;2023-07-31T12:02:51;17.40;99.90
37788;DHT22;23627;53.302;-6.362;2023-07-31T12:05:17;17.60;99.90
37788;DHT22;23627;53.302;-6.362;2023-07-31T12:07:51;17.60;99.90
37788;DHT22;23627;53.302;-6.362;2023-07-31T12:10:31;17.70;99.90
37788;DHT22;23627;53.302;-6.362;2023-07-31T12:12:58;17.80;99.90
37788;DHT22;23627;53.302;-6.362;2023-07-31T12:15:38;17.80;99.90
37788;DHT22;23627;53.302;-6.362;2023-07-31T12:18:20;17.90;99.90
37788;DHT22;23627;53.302;-6.362;2023-07-31T12:21:00;18.10;99.90
37788;DHT22;23627;53.302;-6.362;2023-07-31T12:23:31;18.10;99.90
37788;DHT22;23627;53.302;-6.362;2023-07-31T12:28:54;18.10;99.90
37788;DHT22;23627;53.302;-6.362;2023-07-31T12:31:21;18.20;99.90
37788;DHT22;23627;53.302;-6.362;2023-07-31T12:33:49;18.40;99.90
37788;DHT22;23627;53.302;-6.362;2023-07-31T12:36:17;18.40;99.90
37788;DHT22;23627;53.302;-6.362;2023-07-31T12:38:44;18.60;99.90
37788;DHT22;23627;53.302;-6.362;2023-07-31T12:41:10;18.60;99.90
37788;DHT22;23627;53.302;-6.362;2023-07-31T12:43:40;18.70;99.90
37788;DHT22;23627;53.302;-6.362;2023-07-31T12:46:06;18.80;99.90
37788;DHT22;23627;53.302;-6.362;2023-07-31T12:48:39;18.90;99.90
37788;DHT22;23627;53.302;-6.362;2023-07-31T12:51:05;19.00;99.90
37788;DHT22;23627;53.302;-6.362;2023-07-31T12:53:35;18.90;99.90
37788;DHT22;23627;53.302;-6.362;2023-07-31T12:56:01;19.00;99.90
37788;DHT22;23627;53.302;-6.362;2023-07-31T12:58:27;19.20;99.90
37788;DHT22;23627;53.302;-6.362;2023-07-31T13:00:53;19.40;99.90
37788;DHT22;23627;53.302;-6.362;2023-07-31T13:03:19;19.50;99.90
37788;DHT22;23627;53.302;-6.362;2023-07-31T13:05:44;19.60;99.90
37788;DHT22;23627;53.302;-6.362;2023-07-31T13:08:10;19.60;99.90
37788;DHT22;23627;53.302;-6.362;2023-07-31T13:10:37;19.60;99.90
37788;DHT22;23627;53.302;-6.362;2023-07-31T13:13:03;19.50;99.90
37788;DHT22;23627;53.302;-6.362;2023-07-31T13:15:28;19.50;99.90
37788;DHT22;23627;53.302;-6.362;2023-07-31T13:17:55;19.60;99.90
37788;DHT22;23627;53.302;-6.362;2023-07-31T13:20:20;19.60;99.90
37788;DHT22;23627;53.302;-6.362;2023-07-31T13:22:46;19.60;99.90
37788;DHT22;23627;53.302;-6.362;2023-07-31T13:25:12;19.70;99.90
37788;DHT22;23627;53.302;-6.362;2023-07-31T13:27:38;19.80;99.90
37788;DHT22;23627;53.302;-6.362;2023-07-31T13:30:04;19.90;99.90
37788;DHT22;23627;53.302;-6.362;2023-07-31T13:32:30;19.90;99.90
37788;DHT22;23627;53.302;-6.362;2023-07-31T13:34:55;20.00;99.90
37788;DHT22;23627;53.302;-6.362;2023-07-31T13:37:21;20.10;99.90
37788;DHT22;23627;53.302;-6.362;2023-07-31T13:39:47;20.00;99.90
37788;DHT22;23627;53.302;-6.362;2023-07-31T13:42:13;20.00;99.90
37788;DHT22;23627;53.302;-6.362;2023-07-31T13:44:39;20.00;99.90
37788;DHT22;23627;53.302;-6.362;2023-07-31T13:47:05;20.00;99.90
37788;DHT22;23627;53.302;-6.362;2023-07-31T13:49:32;19.90;99.90
37788;DHT22;23627;53.302;-6.362;2023-07-31T13:51:58;19.90;99.90
37788;DHT22;23627;53.302;-6.362;2023-07-31T13:54:24;19.70;99.90
37788;DHT22;23627;53.302;-6.362;2023-07-31T13:56:52;19.50;99.90
37788;DHT22;23627;53.302;-6.362;2023-07-31T13:59:17;19.30;99.90
37788;DHT22;23627;53.302;-6.362;2023-07-31T14:01:44;19.10;99.90
37788;DHT22;23627;53.302;-6.362;2023-07-31T14:04:10;19.10;99.90
37788;DHT22;23627;53.302;-6.362;2023-07-31T14:06:36;19.00;99.90
37788;DHT22;23627;53.302;-6.362;2023-07-31T14:09:02;19.00;99.90
37788;DHT22;23627;53.302;-6.362;2023-07-31T14:11:28;18.90;99.90
37788;DHT22;23627;53.302;-6.362;2023-07-31T14:13:55;18.80;99.90
37788;DHT22;23627;53.302;-6.362;2023-07-31T14:16:21;18.80;99.90
37788;DHT22;23627;53.302;-6.362;2023-07-31T14:18:47;18.70;99.90
37788;DHT22;23627;53.302;-6.362;2023-07-31T14:21:13;18.80;99.90
37788;DHT22;23627;53.302;-6.362;2023-07-31T14:23:40;18.80;99.90
37788;DHT22;23627;53.302;-6.362;2023-07-31T14:26:06;18.80;99.90
37788;DHT22;23627;53.302;-6.362;2023-07-31T14:28:32;18.80;99.90
37788;DHT22;23627;53.302;-6.362;2023-07-31T14:30:58;18.90;99.90
37788;DHT22;23627;53.302;-6.362;2023-07-31T14:33:24;18.90;99.90
37788;DHT22;23627;53.302;-6.362;2023-07-31T14:35:50;19.00;99.90
37788;DHT22;23627;53.302;-6.362;2023-07-31T14:38:15;18.90;99.90
37788;DHT22;23627;53.302;-6.362;2023-07-31T14:40:41;18.80;99.90
37788;DHT22;23627;53.302;-6.362;2023-07-31T14:43:07;18.70;99.90
37788;DHT22;23627;53.302;-6.362;2023-07-31T14:45:33;18.70;99.90
37788;DHT22;23627;53.302;-6.362;2023-07-31T14:47:59;18.80;99.90
37788;DHT22;23627;53.302;-6.362;2023-07-31T14:50:25;19.00;99.90
37788;DHT22;23627;53.302;-6.362;2023-07-31T14:52:51;19.10;99.90
37788;DHT22;23627;53.302;-6.362;2023-07-31T14:55:18;19.00;99.90
37788;DHT22;23627;53.302;-6.362;2023-07-31T14:57:44;19.00;99.90
37788;DHT22;23627;53.302;-6.362;2023-07-31T15:00:10;18.80;99.90
37788;DHT22;23627;53.302;-6.362;2023-07-31T15:02:40;18.60;99.90
37788;DHT22;23627;53.302;-6.362;2023-07-31T15:05:08;18.60;99.90
37788;DHT22;23627;53.302;-6.362;2023-07-31T15:07:34;18.70;99.90
37788;DHT22;23627;53.302;-6.362;2023-07-31T15:10:01;18.80;99.90
37788;DHT22;23627;53.302;-6.362;2023-07-31T15:12:28;19.00;99.90
37788;DHT22;23627;53.302;-6.362;2023-07-31T15:14:54;19.10;99.90
37788;DHT22;23627;53.302;-6.362;2023-07-31T15:17:23;19.00;99.90
37788;DHT22;23627;53.302;-6.362;2023-07-31T15:20:05;19.00;99.90
37788;DHT22;23627;53.302;-6.362;2023-07-31T15:22:33;18.90;99.90
37788;DHT22;23627;53.302;-6.362;2023-07-31T15:24:59;18.90;99.90
37788;DHT22;23627;53.302;-6.362;2023-07-31T15:27:25;18.80;99.90
37788;DHT22;23627;53.302;-6.362;2023-07-31T15:29:51;18.70;99.90
37788;DHT22;23627;53.302;-6.362;2023-07-31T15:32:17;18.60;99.90
37788;DHT22;23627;53.302;-6.362;2023-07-31T15:34:43;18.50;99.90
37788;DHT22;23627;53.302;-6.362;2023-07-31T15:37:12;18.40;99.90
37788;DHT22;23627;53.302;-6.362;2023-07-31T15:39:43;18.20;99.90
37788;DHT22;23627;53.302;-6.362;2023-07-31T15:42:12;18.10;99.90
37788;DHT22;23627;53.302;-6.362;2023-07-31T15:44:37;18.00;99.90
37788;DHT22;23627;53.302;-6.362;2023-07-31T15:47:04;17.80;99.90
37788;DHT22;23627;53.302;-6.362;2023-07-31T15:49:30;17.60;99.90
37788;DHT22;23627;53.302;-6.362;2023-07-31T15:51:56;17.40;99.90
37788;DHT22;23627;53.302;-6.362;2023-07-31T15:54:24;17.30;99.90
37788;DHT22;23627;53.302;-6.362;2023-07-31T15:56:49;17.20;99.90
37788;DHT22;23627;53.302;-6.362;2023-07-31T15:59:18;17.00;99.90